< < Back
Terminal Aerodrome Forecast


Current Version              Previous Versions:   1  2  3  4  5  6  7  8  9  

Terminal Aerodrome Forecast

438
FTUS44 KBMX 221120
TAFANB
TAF
KANB 221120Z 2212/2312 35004KT P6SM BKN120
     FM221500 03009KT P6SM SCT100
     FM230300 00000KT P6SM SKC=

Latest METAR

245
SAUS70 KWBC 231000 RRF
MTRANB
METAR KANB 230953Z AUTO 07003KT 10SM CLR 12/11 A3028 RMK AO2 SLP252
T01220106


USA.gov is the U.S. government's official web portal to all federal, state and local government web resources and services.